Surat Thani Airport
VTSB : now visible

Airfield :











YOU CAN JOIN US ON...

 
LOGIN :

Register | Disclaimer

   EN    FR    IT 

 









Legend :    VFR   Marginal VFR   IFR   Intensive IFR   Very Intensive IFR
Visi :
Ceiling :
>= 8 km
>= 3000ft
5 to 8 km
1000 to 3000 ft
1500m to 5 km
500 to 1000 ft
800 to 1500m
200 to 500 ft
< 800m
< 200 ft
Symbols :   Thunderstorms  Fog  Heavy snow  Heavy precipitations  Wind > 20 kt






- Airport Elevation : 20 ft
- IATA code : URT


VTSB - Surat Thani

CURRENT METAR :
  • 191200Z 00000KT 8000 FEW020 26/24 Q1010

EXPIRED METARs :
  • 191100Z 05003KT 030V090 8000 FEW020 27/24 Q1010
  • 191000Z 04009KT 010V080 9999 VCSH FEW016CB 29/25 Q1009

TAF TAF VTSB
Valid from the 19 at 12:00 until the 20 at 12:00 UTC


191100Z 1912/2012 34003KT 9999 FEW020 SCT100
BECMG 1920/1922 5000 BR
BECMG 2002/2004 05010KT 9999 NSW
TEMPO 2005/2011 05010G20KT 3000 TSRA FEW016CB SCT018 BKN100



MET'MAP, your aeronautical weather chart ! - Copyright ORBIFLY December 2007 - Disclaimer

ORBIFLY MET'MAP TEAM :

Programming & Development : Alexandra Zaïnal
Concept & Development : Baudouin d'Aumeries
Co-Development & Prog : Marc-Olivier Méhu
Technical & hardware support : Manuel Goepfert

Contact : metmap@orbifly.com




SOURCES & CREDITS :

   NOAA       Earth
Advisory